Time;durP1;ratioP1;P1;durP2;ratioP2;P2;SDS_P1;SDS_P2;PMS_P1;PMS_P2;Temp;Humidity;BMP_temperature;BMP_pressure;BME280_temperature;BME280_humidity;BME280_pressure;Samples;Min_cycle;Max_cycle;Signal;HPM_P1;HPM_P2
2021/03/02 00:02:13;;;;;;;10.05;6.05;;;;;;;7.57;39.27;102728.09;5068935;28;20123;-66
2021/03/02 00:04:43;;;;;;;9.77;5.90;;;;;;;7.56;39.24;102731.81;5066309;28;20044;-66
2021/03/02 00:07:13;;;;;;;9.30;5.78;;;;;;;7.55;39.38;102720.97;5067948;28;20068;-68
2021/03/02 00:09:41;;;;;;;9.05;5.63;;;;;;;7.51;39.28;102725.66;5065228;28;20050;-68
2021/03/02 00:12:28;;;;;;;9.43;5.80;;;;;;;7.51;39.47;102731.09;5068319;28;20452;-68
2021/03/02 00:14:56;;;;;;;9.23;5.70;;;;;;;7.48;38.93;102729.44;5068419;28;20419;-67
2021/03/02 00:17:31;;;;;;;11.52;5.95;;;;;;;7.49;39.44;102719.38;5066591;28;20040;-66
2021/03/02 00:20:07;;;;;;;8.55;5.60;;;;;;;7.47;39.23;102719.47;5064447;28;20115;-66
2021/03/02 00:22:52;;;;;;;11.07;6.22;;;;;;;7.45;39.24;102726.81;5070194;28;20064;-66
2021/03/02 00:25:23;;;;;;;8.95;5.97;;;;;;;7.43;39.17;102733.28;5069402;28;20419;-66
2021/03/02 00:27:53;;;;;;;8.85;5.55;;;;;;;7.42;39.12;102726.06;5061683;28;20045;-66
2021/03/02 00:30:22;;;;;;;8.65;5.13;;;;;;;7.39;39.27;102728.94;5064043;28;20033;-66
2021/03/02 00:32:53;;;;;;;8.65;5.40;;;;;;;7.40;39.05;102725.25;5064611;28;20045;-66
2021/03/02 00:35:22;;;;;;;10.75;5.88;;;;;;;7.36;39.13;102729.06;5062572;28;20546;-66
2021/03/02 00:37:51;;;;;;;8.48;5.47;;;;;;;7.36;38.97;102723.59;5058399;28;20049;-66
2021/03/02 00:40:20;;;;;;;9.10;5.55;;;;;;;7.32;39.24;102725.59;5062661;28;20414;-66
2021/03/02 00:42:51;;;;;;;9.63;5.38;;;;;;;7.31;38.92;102722.94;5076974;28;20033;-66
2021/03/02 00:45:22;;;;;;;9.55;5.53;;;;;;;7.29;39.05;102725.72;5068011;28;21023;-66
2021/03/02 00:47:50;;;;;;;9.15;5.50;;;;;;;7.28;39.36;102717.59;5059789;28;20162;-66
2021/03/02 00:50:21;;;;;;;9.95;6.15;;;;;;;7.27;38.92;102730.34;5063096;28;20047;-66
2021/03/02 00:52:49;;;;;;;9.25;5.47;;;;;;;7.24;38.98;102727.72;5079909;28;20094;-65
2021/03/02 00:55:19;;;;;;;9.65;6.00;;;;;;;7.24;39.20;102721.44;5073831;28;20033;-68
2021/03/02 00:57:48;;;;;;;8.60;5.70;;;;;;;7.20;39.32;102723.38;5060429;28;20571;-65
2021/03/02 01:00:20;;;;;;;8.75;4.90;;;;;;;7.18;38.99;102722.56;5063235;28;20071;-65
2021/03/02 01:02:49;;;;;;;7.13;4.95;;;;;;;7.16;39.06;102721.72;5068640;28;20047;-68
2021/03/02 01:05:18;;;;;;;8.68;5.53;;;;;;;7.15;39.28;102722.72;5067747;28;20119;-68
2021/03/02 01:07:46;;;;;;;8.98;5.43;;;;;;;7.13;39.13;102721.00;5047126;28;20044;-66
2021/03/02 01:10:20;;;;;;;11.57;6.00;;;;;;;7.10;39.35;102720.16;5064576;28;20063;-66
2021/03/02 01:13:08;;;;;;;11.90;7.15;;;;;;;7.07;39.09;102716.69;5079871;28;20049;-66
2021/03/02 01:15:36;;;;;;;11.13;7.10;;;;;;;7.07;39.16;102720.31;5065033;28;20064;-66
2021/03/02 01:18:04;;;;;;;11.68;7.63;;;;;;;7.06;39.13;102717.66;5066254;28;20063;-66
2021/03/02 01:20:33;;;;;;;11.15;7.25;;;;;;;7.02;39.13;102722.28;5062298;28;20063;-66
2021/03/02 01:23:00;;;;;;;10.52;6.72;;;;;;;7.01;39.08;102723.22;5062840;28;20396;-66
2021/03/02 01:25:29;;;;;;;11.40;7.03;;;;;;;7.00;39.07;102720.56;5061591;28;20099;-68
2021/03/02 01:27:56;;;;;;;11.85;6.60;;;;;;;6.96;39.07;102717.13;5065000;28;20549;-66
2021/03/02 01:30:26;;;;;;;12.27;7.40;;;;;;;6.96;39.28;102716.22;5063896;28;20063;-66
2021/03/02 01:32:53;;;;;;;10.70;7.10;;;;;;;6.91;39.37;102710.97;5064245;28;20040;-66
2021/03/02 01:35:21;;;;;;;11.52;7.20;;;;;;;6.90;39.10;102714.66;5058118;28;20471;-66
2021/03/02 01:37:53;;;;;;;13.48;8.80;;;;;;;6.88;39.15;102715.66;5064566;28;20075;-66
2021/03/02 01:40:20;;;;;;;12.02;6.78;;;;;;;6.85;39.23;102713.94;5058865;28;20048;-66
2021/03/02 01:42:49;;;;;;;11.65;7.63;;;;;;;6.85;39.15;102707.59;5057186;28;20539;-65
2021/03/02 01:45:19;;;;;;;11.48;8.10;;;;;;;6.82;39.00;102705.03;5061067;28;20600;-66
2021/03/02 01:47:49;;;;;;;10.50;6.95;;;;;;;6.79;39.25;102711.47;5053884;28;20037;-66
2021/03/02 01:50:18;;;;;;;10.70;6.45;;;;;;;6.77;39.07;102707.03;5052601;28;20387;-66
2021/03/02 01:52:46;;;;;;;10.30;6.38;;;;;;;6.74;38.97;102708.06;5060602;28;20051;-66
2021/03/02 01:55:16;;;;;;;8.95;5.80;;;;;;;6.72;39.20;102705.41;5049577;28;20045;-66
2021/03/02 01:57:44;;;;;;;8.40;5.22;;;;;;;6.70;39.21;102711.84;5068498;28;20051;-66
2021/03/02 02:00:22;;;;;;;8.77;5.15;;;;;;;6.70;39.33;102706.41;5065470;28;20056;-65
2021/03/02 02:02:59;;;;;;;9.25;5.60;;;;;;;6.66;39.45;102702.06;5071881;28;20032;-66
2021/03/02 02:05:34;;;;;;;8.27;5.40;;;;;;;6.62;39.04;102708.56;5070768;28;20037;-66
2021/03/02 02:08:07;;;;;;;7.50;4.88;;;;;;;6.63;39.25;102707.63;5066903;28;20044;-66
2021/03/02 02:10:47;;;;;;;7.18;4.47;;;;;;;6.60;39.55;102711.34;5070973;28;20041;-66
2021/03/02 02:13:22;;;;;;;7.43;4.75;;;;;;;6.57;39.13;102707.88;5064157;28;20534;-66
2021/03/02 02:15:55;;;;;;;9.23;5.30;;;;;;;6.56;39.23;102709.69;5071595;28;20032;-66
2021/03/02 02:18:26;;;;;;;8.68;5.50;;;;;;;6.52;39.22;102709.88;5071746;28;20114;-66
2021/03/02 02:21:03;;;;;;;7.90;4.82;;;;;;;6.53;39.24;102707.09;5066384;28;20531;-66
2021/03/02 02:23:41;;;;;;;8.70;5.10;;;;;;;6.53;39.60;102708.94;5071298;28;20119;-66
2021/03/02 02:26:35;;;;;;;7.38;4.65;;;;;;;6.46;39.43;102702.84;5068309;28;20059;-66
2021/03/02 02:29:04;;;;;;;7.45;4.78;;;;;;;6.45;39.38;102702.91;5064031;28;20068;-65
2021/03/02 02:31:33;;;;;;;7.97;4.85;;;;;;;6.44;39.31;102707.47;5063023;28;20045;-66
2021/03/02 02:34:03;;;;;;;7.38;4.63;;;;;;;6.43;39.43;102704.78;5070707;28;20810;-66
2021/03/02 02:36:33;;;;;;;7.95;5.07;;;;;;;6.42;39.18;102703.91;5069395;28;20064;-66
2021/03/02 02:39:01;;;;;;;7.60;4.88;;;;;;;6.41;39.25;102695.84;5086260;28;20576;-66
2021/03/02 02:41:32;;;;;;;8.25;4.90;;;;;;;6.40;39.19;102692.22;5061991;28;20036;-66
2021/03/02 02:44:19;;;;;;;6.70;4.80;;;;;;;6.38;39.35;102695.94;5087280;28;20047;-66
2021/03/02 02:46:49;;;;;;;7.88;4.63;;;;;;;6.38;39.28;102687.78;5069802;28;20573;-66
2021/03/02 02:49:17;;;;;;;6.93;4.68;;;;;;;6.35;39.10;102691.50;5069127;28;20123;-65
2021/03/02 02:51:46;;;;;;;8.60;5.10;;;;;;;6.33;39.19;102691.59;5070823;28;20079;-66
2021/03/02 02:54:14;;;;;;;8.00;5.03;;;;;;;6.32;39.11;102692.53;5087349;28;20132;-67
2021/03/02 02:56:45;;;;;;;8.48;5.20;;;;;;;6.32;39.17;102686.22;5060059;28;20495;-66
2021/03/02 02:59:17;;;;;;;8.57;4.95;;;;;;;6.31;39.47;102684.44;5066589;28;20040;-66
2021/03/02 03:01:47;;;;;;;8.70;5.10;;;;;;;6.27;39.23;102691.81;5069293;28;20040;-66
2021/03/02 03:04:18;;;;;;;9.05;5.03;;;;;;;6.27;39.38;102688.22;5071492;28;20114;-66
2021/03/02 03:06:47;;;;;;;8.50;4.93;;;;;;;6.24;39.12;102697.38;5070369;28;20446;-66
2021/03/02 03:09:15;;;;;;;7.30;4.90;;;;;;;6.23;39.27;102692.91;5069195;28;20041;-66
2021/03/02 03:11:48;;;;;;;7.78;4.75;;;;;;;6.23;39.27;102686.56;5070614;28;20626;-67
2021/03/02 03:14:17;;;;;;;9.30;5.47;;;;;;;6.17;39.02;102689.53;5070032;28;20087;-66
2021/03/02 03:16:45;;;;;;;8.50;4.68;;;;;;;6.18;38.94;102694.88;5064099;28;20056;-66
2021/03/02 03:19:23;;;;;;;8.35;5.07;;;;;;;6.18;39.17;102688.56;5070830;28;20124;-66
2021/03/02 03:21:52;;;;;;;7.32;4.43;;;;;;;6.12;39.17;102689.69;5067032;28;20036;-66
2021/03/02 03:24:47;;;;;;;7.57;4.70;;;;;;;6.11;39.32;102687.94;5070492;28;20123;-66
2021/03/02 03:27:16;;;;;;;8.30;4.97;;;;;;;6.07;39.06;102690.84;5076566;28;20110;-66
2021/03/02 03:29:46;;;;;;;7.40;4.82;;;;;;;6.06;39.31;102689.94;5066283;28;20612;-66
2021/03/02 03:32:15;;;;;;;7.25;4.38;;;;;;;6.05;39.31;102692.72;5064880;28;20045;-66
2021/03/02 03:34:45;;;;;;;7.43;4.93;;;;;;;6.03;39.23;102694.59;5064766;28;20126;-66
2021/03/02 03:37:12;;;;;;;7.70;4.53;;;;;;;6.01;39.36;102704.66;5064279;28;20477;-66
2021/03/02 03:39:40;;;;;;;9.23;5.18;;;;;;;5.99;39.33;102699.28;5064749;28;20041;-66
2021/03/02 03:42:07;;;;;;;7.93;4.70;;;;;;;5.98;39.47;102695.66;5068682;28;20123;-66
2021/03/02 03:44:36;;;;;;;8.82;4.80;;;;;;;5.98;39.32;102694.78;5071341;28;20052;-66
2021/03/02 03:47:04;;;;;;;7.03;4.28;;;;;;;5.96;39.08;102700.28;5066156;28;20091;-66
2021/03/02 03:49:32;;;;;;;6.57;4.38;;;;;;;5.95;39.37;102695.78;5060534;28;20045;-66
2021/03/02 03:52:03;;;;;;;8.55;4.78;;;;;;;5.94;39.23;102698.53;5062889;28;20130;-66
2021/03/02 03:54:33;;;;;;;7.07;4.43;;;;;;;5.92;39.21;102698.59;5061394;28;20072;-66
2021/03/02 03:57:02;;;;;;;7.43;4.38;;;;;;;5.90;39.34;102692.38;5062820;28;20040;-66
2021/03/02 03:59:29;;;;;;;6.90;4.05;;;;;;;5.89;39.31;102689.69;5066848;28;20396;-66
2021/03/02 04:01:59;;;;;;;7.53;4.10;;;;;;;5.88;39.23;102691.53;5068486;28;20040;-66
2021/03/02 04:04:27;;;;;;;7.57;3.97;;;;;;;5.87;39.13;102699.72;5069585;28;20123;-66
2021/03/02 04:06:57;;;;;;;7.22;4.50;;;;;;;5.85;39.27;102696.16;5046336;28;20226;-66
2021/03/02 04:09:25;;;;;;;6.82;4.20;;;;;;;5.83;39.28;102693.53;5067840;28;20119;-66
2021/03/02 04:11:54;;;;;;;6.50;3.88;;;;;;;5.82;39.17;102701.75;5063741;28;20037;-66
2021/03/02 04:14:42;;;;;;;6.63;4.30;;;;;;;5.79;39.22;102699.13;5067693;28;20048;-66
2021/03/02 04:17:30;;;;;;;6.95;4.25;;;;;;;5.77;39.17;102706.44;5068227;28;20125;-66
2021/03/02 04:19:59;;;;;;;7.75;4.32;;;;;;;5.76;39.05;102700.13;5067168;28;20127;-66
2021/03/02 04:22:26;;;;;;;7.95;4.47;;;;;;;5.73;39.28;102704.78;5064727;28;20028;-66
2021/03/02 04:24:54;;;;;;;6.93;4.30;;;;;;;5.72;39.46;102698.47;5069724;28;20484;-66
2021/03/02 04:27:21;;;;;;;5.90;3.90;;;;;;;5.72;39.11;102700.28;5063538;28;20671;-66
2021/03/02 04:29:48;;;;;;;6.97;4.05;;;;;;;5.70;39.24;102699.47;5069459;28;20032;-66
2021/03/02 04:32:16;;;;;;;6.00;3.67;;;;;;;5.69;39.38;102697.69;5084320;28;20510;-66
2021/03/02 04:34:44;;;;;;;6.70;4.10;;;;;;;5.68;39.23;102699.50;5069124;28;20044;-66
2021/03/02 04:37:12;;;;;;;6.85;3.95;;;;;;;5.65;39.33;102699.66;5066840;28;20197;-66
2021/03/02 04:39:39;;;;;;;7.50;4.30;;;;;;;5.65;39.29;102701.47;5068613;28;20094;-66
2021/03/02 04:42:07;;;;;;;6.72;4.05;;;;;;;5.62;39.33;102699.75;5063357;28;20434;-66
2021/03/02 04:44:35;;;;;;;7.18;4.03;;;;;;;5.61;39.41;102700.69;5066042;28;20044;-66
2021/03/02 04:47:03;;;;;;;6.80;4.05;;;;;;;5.59;39.47;102698.00;5062322;28;20041;-66
2021/03/02 04:49:30;;;;;;;5.90;3.45;;;;;;;5.58;39.28;102696.28;5060983;28;20067;-66
2021/03/02 04:51:59;;;;;;;8.07;4.53;;;;;;;5.59;39.34;102699.88;5059006;28;20611;-66
2021/03/02 04:54:26;;;;;;;8.40;4.10;;;;;;;5.57;39.67;102699.03;5067878;28;20049;-66
2021/03/02 04:56:54;;;;;;;6.78;4.10;;;;;;;5.57;39.33;102699.03;5065440;28;20483;-66
2021/03/02 04:59:22;;;;;;;6.80;4.28;;;;;;;5.55;39.68;102699.09;5068809;28;20044;-66
2021/03/02 05:01:49;;;;;;;9.20;4.15;;;;;;;5.55;39.18;102701.81;5068614;28;20042;-66
2021/03/02 05:04:17;;;;;;;6.90;4.30;;;;;;;5.54;39.35;102696.41;5068579;28;20037;-66
2021/03/02 05:06:44;;;;;;;6.63;3.80;;;;;;;5.53;39.50;102694.66;5067985;28;20040;-66
2021/03/02 05:09:12;;;;;;;6.45;4.00;;;;;;;5.53;39.62;102691.94;5066922;28;20041;-66
2021/03/02 05:11:42;;;;;;;6.18;4.07;;;;;;;5.51;39.44;102694.69;5068490;28;20055;-66
2021/03/02 05:14:09;;;;;;;5.97;3.85;;;;;;;5.50;39.52;102690.22;5066435;28;20098;-67
2021/03/02 05:16:37;;;;;;;6.47;4.15;;;;;;;5.49;39.46;102688.47;5068858;28;20044;-66
2021/03/02 05:19:05;;;;;;;7.85;3.75;;;;;;;5.48;39.75;102683.06;5067856;28;20150;-66
2021/03/02 05:21:32;;;;;;;6.90;4.20;;;;;;;5.48;39.34;102691.22;5068274;28;20044;-66
2021/03/02 05:23:59;;;;;;;6.75;3.70;;;;;;;5.47;39.71;102687.63;5067404;28;20098;-66
2021/03/02 05:26:28;;;;;;;7.55;4.05;;;;;;;5.48;39.46;102688.50;5064073;28;20048;-66
2021/03/02 05:28:57;;;;;;;7.13;4.20;;;;;;;5.45;39.47;102683.16;5063996;28;20063;-66
2021/03/02 05:31:25;;;;;;;8.02;4.72;;;;;;;5.44;39.51;102684.97;5063543;28;20423;-67
2021/03/02 05:33:53;;;;;;;8.00;4.20;;;;;;;5.43;39.64;102688.63;5065523;28;20047;-66
2021/03/02 05:36:25;;;;;;;7.38;4.18;;;;;;;5.39;39.36;102684.25;5060238;28;20040;-66
2021/03/02 05:38:52;;;;;;;8.32;4.05;;;;;;;5.40;39.47;102688.75;5063299;28;20624;-66
2021/03/02 05:41:19;;;;;;;10.00;4.70;;;;;;;5.41;39.45;102695.06;5066807;28;20040;-66
2021/03/02 05:43:48;;;;;;;7.80;3.92;;;;;;;5.40;39.44;102694.19;5063133;28;20476;-66
2021/03/02 05:46:32;;;;;;;7.13;4.05;;;;;;;5.37;39.52;102694.28;5067654;28;20376;-66
2021/03/02 05:49:01;;;;;;;7.93;4.22;;;;;;;5.37;39.45;102690.66;5062900;28;20056;-67
2021/03/02 05:51:29;;;;;;;7.75;4.00;;;;;;;5.37;39.26;102698.81;5067529;28;20040;-67
2021/03/02 05:53:57;;;;;;;8.07;3.72;;;;;;;5.36;39.40;102689.78;5067281;28;20032;-67
2021/03/02 05:56:25;;;;;;;6.90;4.10;;;;;;;5.35;39.57;102697.97;5068767;28;20041;-66
2021/03/02 05:58:53;;;;;;;6.50;3.90;;;;;;;5.35;39.11;102690.72;5067849;28;20044;-66
2021/03/02 06:01:21;;;;;;;6.55;4.03;;;;;;;5.33;39.34;102698.06;5062418;28;20024;-67
2021/03/02 06:03:52;;;;;;;8.68;4.07;;;;;;;5.32;39.42;102698.09;5083782;28;20086;-66
2021/03/02 06:06:19;;;;;;;7.13;3.97;;;;;;;5.31;39.60;102699.03;5067259;28;20053;-66
2021/03/02 06:08:47;;;;;;;8.35;4.68;;;;;;;5.29;39.60;102699.09;5065204;28;20037;-67
2021/03/02 06:11:32;;;;;;;6.88;4.50;;;;;;;5.30;39.45;102698.16;5068337;28;20040;-66
2021/03/02 06:14:22;;;;;;;7.65;4.20;;;;;;;5.28;39.75;102699.13;5057919;28;20041;-67
2021/03/02 06:16:57;;;;;;;6.70;4.00;;;;;;;5.22;39.61;102694.81;5063883;28;20055;-67
2021/03/02 06:19:43;;;;;;;5.47;3.72;;;;;;;5.22;39.75;102692.09;5065235;28;20040;-67
2021/03/02 06:22:32;;;;;;;6.35;3.78;;;;;;;5.21;39.82;102704.78;5060172;28;20058;-66
2021/03/02 06:25:01;;;;;;;6.50;3.65;;;;;;;5.18;39.34;102701.31;5061779;28;20036;-66
2021/03/02 06:27:30;;;;;;;7.10;3.58;;;;;;;5.18;39.70;102699.44;5063740;28;20232;-66
2021/03/02 06:30:09;;;;;;;8.02;4.38;;;;;;;5.19;39.80;102694.91;5064382;28;20123;-65
2021/03/02 06:32:38;;;;;;;7.68;4.13;;;;;;;5.16;39.47;102693.22;5064113;28;20147;-66
2021/03/02 06:35:09;;;;;;;6.15;3.53;;;;;;;5.16;39.64;102698.63;5066816;28;20044;-66
2021/03/02 06:37:41;;;;;;;7.00;3.78;;;;;;;5.16;39.78;102698.63;5066356;28;20107;-66
2021/03/02 06:40:10;;;;;;;8.27;3.90;;;;;;;5.15;39.74;102705.00;5062729;28;20049;-65
2021/03/02 06:42:38;;;;;;;5.85;3.65;;;;;;;5.15;39.77;102704.13;5064953;28;20041;-67
2021/03/02 06:45:09;;;;;;;6.57;3.83;;;;;;;5.17;39.89;102707.66;5059559;28;20110;-66
2021/03/02 06:47:37;;;;;;;5.78;3.60;;;;;;;5.16;40.03;102703.19;5061327;28;20511;-67
2021/03/02 06:50:21;;;;;;;6.10;3.63;;;;;;;5.18;40.17;102702.16;5063131;28;20047;-67
2021/03/02 06:52:50;;;;;;;7.95;3.80;;;;;;;5.16;39.60;102700.47;5065443;28;20713;-67
2021/03/02 06:55:27;;;;;;;6.82;3.72;;;;;;;5.20;40.44;102711.16;5065297;28;20074;-67
2021/03/02 06:58:18;;;;;;;7.38;4.38;;;;;;;5.21;40.73;102709.31;5062986;28;20037;-68
2021/03/02 07:00:48;;;;;;;7.03;4.13;;;;;;;5.22;40.58;102708.38;5067216;28;20036;-67
2021/03/02 07:03:25;;;;;;;6.57;3.50;;;;;;;5.27;40.76;102709.09;5069275;28;20393;-67
2021/03/02 07:05:54;;;;;;;6.95;4.10;;;;;;;5.29;40.61;102719.91;5077749;28;20399;-67
2021/03/02 07:08:22;;;;;;;6.22;3.78;;;;;;;5.33;40.79;102711.63;5063808;28;20106;-67
2021/03/02 07:10:53;;;;;;;6.38;3.85;;;;;;;5.40;40.98;102715.88;5064181;28;20040;-65
2021/03/02 07:13:22;;;;;;;5.97;3.58;;;;;;;5.46;41.08;102707.53;5063344;28;20387;-67
2021/03/02 07:15:52;;;;;;;7.72;4.20;;;;;;;5.53;40.91;102710.94;5065468;28;20439;-67
2021/03/02 07:18:32;;;;;;;6.28;3.72;;;;;;;5.60;41.38;102717.91;5077753;28;20045;-67
2021/03/02 07:21:01;;;;;;;7.85;4.10;;;;;;;5.64;40.90;102713.28;5066056;28;20040;-68
2021/03/02 07:23:35;;;;;;;9.98;4.10;;;;;;;5.71;41.09;102712.09;5081509;28;20059;-67
2021/03/02 07:26:03;;;;;;;6.05;3.60;;;;;;;5.75;41.34;102716.50;5062834;28;20392;-68
2021/03/02 07:28:35;;;;;;;6.90;3.85;;;;;;;5.84;41.32;102718.88;5062886;28;20048;-68
2021/03/02 07:31:05;;;;;;;7.13;3.88;;;;;;;5.89;41.62;102714.13;5064157;28;20072;-68
2021/03/02 07:33:33;;;;;;;5.88;3.33;;;;;;;5.97;41.46;102712.03;5063072;28;20037;-67
2021/03/02 07:36:01;;;;;;;6.53;3.75;;;;;;;6.06;41.36;102717.13;5067429;28;20117;-67
2021/03/02 07:38:29;;;;;;;6.18;3.45;;;;;;;6.13;41.35;102710.50;5068529;28;20404;-68
2021/03/02 07:40:57;;;;;;;6.88;3.63;;;;;;;6.23;41.71;102713.75;5065684;28;20537;-68
2021/03/02 07:43:34;;;;;;;6.38;3.72;;;;;;;6.34;41.80;102712.38;5068582;28;20426;-68
2021/03/02 07:46:58;;;;;;;6.13;3.60;;;;;;;6.46;42.02;102716.44;5066682;28;20040;-68
2021/03/02 07:49:47;;;;;;;6.20;3.78;;;;;;;6.59;42.17;102717.72;5067781;28;20147;-68
2021/03/02 07:52:21;;;;;;;6.15;3.80;;;;;;;6.78;41.91;102709.72;5070622;28;20075;-67
2021/03/02 07:55:19;;;;;;;5.68;3.67;;;;;;;6.94;41.91;102715.41;5081845;28;20400;-68
2021/03/02 07:57:48;;;;;;;5.80;3.42;;;;;;;7.09;42.05;102715.66;5063187;28;20053;-66
2021/03/02 08:00:26;;;;;;;6.20;3.50;;;;;;;7.29;41.81;102708.50;5066395;28;20143;-66
2021/03/02 08:03:28;;;;;;;7.93;4.20;;;;;;;7.39;41.34;102713.47;5066118;28;20032;-66
2021/03/02 08:06:00;;;;;;;6.22;3.17;;;;;;;7.57;41.22;102713.63;5058261;28;20044;-67
2021/03/02 08:08:29;;;;;;;7.65;3.55;;;;;;;7.72;41.23;102718.38;5061714;28;20036;-67
2021/03/02 08:10:58;;;;;;;6.35;3.45;;;;;;;7.84;41.27;102713.25;5065538;28;20396;-67
2021/03/02 08:13:34;;;;;;;8.15;4.20;;;;;;;7.98;40.44;102723.53;5062225;28;20040;-68
2021/03/02 08:16:04;;;;;;;6.53;3.45;;;;;;;8.03;40.55;102716.03;5060739;28;20043;-67
2021/03/02 08:18:36;;;;;;;5.55;3.42;;;;;;;8.13;40.19;102727.41;5067955;28;20071;-67
2021/03/02 08:21:11;;;;;;;6.43;3.33;;;;;;;8.17;40.17;102732.63;5064677;28;20399;-67
2021/03/02 08:23:49;;;;;;;7.53;3.20;;;;;;;8.28;39.91;102731.25;5067716;28;20028;-66
2021/03/02 08:26:21;;;;;;;7.03;3.88;;;;;;;8.33;39.73;102737.34;5063081;28;20051;-67
2021/03/02 08:29:13;;;;;;;6.20;3.72;;;;;;;8.38;39.82;102727.13;5065145;28;20048;-66
2021/03/02 08:31:45;;;;;;;6.25;3.75;;;;;;;8.41;39.91;102729.69;5064900;28;20044;-66
2021/03/02 08:34:21;;;;;;;6.80;3.67;;;;;;;8.46;39.81;102727.69;5082383;28;20051;-66
2021/03/02 08:36:53;;;;;;;6.20;3.42;;;;;;;8.50;39.71;102735.63;5065939;28;20154;-66
2021/03/02 08:39:21;;;;;;;5.57;3.25;;;;;;;8.53;40.00;102732.75;5066043;28;20068;-66
2021/03/02 08:41:50;;;;;;;7.65;3.63;;;;;;;8.58;39.54;102732.53;5066916;28;20043;-66
2021/03/02 08:44:19;;;;;;;5.85;3.65;;;;;;;8.61;39.62;102727.81;5066383;28;20051;-66
2021/03/02 08:46:49;;;;;;;7.40;4.22;;;;;;;8.66;39.63;102727.59;5063512;28;20096;-66
2021/03/02 08:49:18;;;;;;;7.53;3.83;;;;;;;8.70;39.69;102731.06;5060585;28;20196;-66
2021/03/02 08:51:46;;;;;;;6.65;3.80;;;;;;;8.74;39.56;102729.94;5065774;28;20033;-68
2021/03/02 08:54:15;;;;;;;6.95;3.55;;;;;;;8.78;39.54;102731.56;5067819;28;20040;-67
2021/03/02 08:56:42;;;;;;;6.50;3.92;;;;;;;8.82;39.25;102735.91;5066413;28;20040;-67
2021/03/02 08:59:11;;;;;;;7.65;3.63;;;;;;;8.88;39.39;102735.63;5062778;28;20148;-67
2021/03/02 09:01:40;;;;;;;8.15;4.18;;;;;;;8.90;39.45;102731.84;5066689;28;20071;-67
2021/03/02 09:04:12;;;;;;;8.65;4.32;;;;;;;8.96;39.38;102731.56;5069402;28;20060;-67
2021/03/02 09:06:40;;;;;;;6.22;3.78;;;;;;;9.00;39.35;102740.47;5056981;28;20064;-68
2021/03/02 09:09:09;;;;;;;6.97;3.72;;;;;;;9.06;39.09;102745.59;5058626;28;20145;-68
2021/03/02 09:11:39;;;;;;;7.10;3.92;;;;;;;9.13;39.46;102740.75;5059842;28;20072;-67
2021/03/02 09:14:12;;;;;;;6.45;3.90;;;;;;;9.19;38.79;102749.50;5076943;28;20048;-67
2021/03/02 09:16:41;;;;;;;6.53;3.75;;;;;;;9.21;39.33;102746.69;5056906;28;20095;-68
2021/03/02 09:19:18;;;;;;;6.85;3.97;;;;;;;9.31;38.81;102748.84;5064900;28;20071;-68
2021/03/02 09:21:50;;;;;;;8.02;4.10;;;;;;;9.36;39.00;102741.34;5062764;28;20188;-67
2021/03/02 09:24:26;;;;;;;6.78;3.72;;;;;;;9.42;39.29;102748.31;5067399;28;20124;-67
2021/03/02 09:26:58;;;;;;;7.35;3.85;;;;;;;9.51;39.07;102753.31;5062305;28;20529;-67
2021/03/02 09:29:27;;;;;;;6.57;3.55;;;;;;;9.56;39.00;102745.75;5064121;28;20059;-67
2021/03/02 09:31:59;;;;;;;7.65;4.07;;;;;;;9.66;39.05;102747.03;5065137;28;20045;-67
2021/03/02 09:34:32;;;;;;;7.13;3.67;;;;;;;9.76;38.78;102751.09;5063216;28;20068;-67
2021/03/02 09:37:04;;;;;;;7.60;4.28;;;;;;;9.84;38.74;102739.75;5068480;28;20102;-68
2021/03/02 09:39:33;;;;;;;7.60;3.88;;;;;;;9.90;38.97;102747.63;5060553;28;20135;-67
2021/03/02 09:42:13;;;;;;;6.22;3.80;;;;;;;10.02;38.79;102749.69;5060472;28;20427;-68
2021/03/02 09:44:45;;;;;;;6.95;4.05;;;;;;;10.13;38.39;102743.63;5067680;28;20396;-68
2021/03/02 09:47:17;;;;;;;8.68;4.35;;;;;;;10.21;38.21;102741.34;5063652;28;20052;-68
2021/03/02 09:49:48;;;;;;;6.72;4.25;;;;;;;10.31;38.40;102739.00;5058689;28;20045;-68
2021/03/02 09:52:36;;;;;;;7.50;4.18;;;;;;;10.40;37.79;102733.03;5061360;28;20072;-68
2021/03/02 09:55:26;;;;;;;8.40;4.55;;;;;;;10.48;37.74;102745.31;5062943;28;20143;-68
2021/03/02 09:58:06;;;;;;;7.53;4.25;;;;;;;10.60;37.20;102734.66;5058232;28;20120;-68
2021/03/02 10:00:35;;;;;;;8.70;4.28;;;;;;;10.67;38.17;102730.59;5080338;28;20379;-67
2021/03/02 10:03:07;;;;;;;8.05;4.50;;;;;;;10.79;37.55;102729.88;5066675;28;20048;-67
2021/03/02 10:05:41;;;;;;;8.20;4.60;;;;;;;10.87;37.22;102741.28;5065056;28;20048;-67
2021/03/02 10:08:22;;;;;;;8.50;3.88;;;;;;;10.99;37.00;102739.69;5057159;28;20285;-68
2021/03/02 10:10:51;;;;;;;7.43;4.35;;;;;;;11.05;37.42;102739.34;5058213;28;20106;-68
2021/03/02 10:13:24;;;;;;;6.93;4.47;;;;;;;11.17;36.74;102734.03;5065121;28;20047;-68
2021/03/02 10:16:12;;;;;;;6.10;4.00;;;;;;;11.25;36.60;102739.94;5066585;28;20040;-67
2021/03/02 10:18:49;;;;;;;7.35;3.80;;;;;;;11.36;36.80;102733.78;5060376;28;20061;-67
2021/03/02 10:21:18;;;;;;;8.73;4.70;;;;;;;11.44;37.26;102742.44;5069136;28;20037;-67
2021/03/02 10:23:47;;;;;;;6.90;4.70;;;;;;;11.53;36.90;102736.41;5055372;28;20055;-67
2021/03/02 10:26:20;;;;;;;7.55;4.40;;;;;;;11.64;35.93;102733.91;5052979;28;20068;-68
2021/03/02 10:28:49;;;;;;;6.95;4.00;;;;;;;11.74;37.04;102741.56;5069451;28;20131;-68
2021/03/02 10:31:17;;;;;;;6.65;3.95;;;;;;;11.82;36.90;102733.75;5072926;28;20037;-68
2021/03/02 10:33:45;;;;;;;7.40;4.13;;;;;;;11.93;36.68;102734.91;5057398;28;20045;-68
2021/03/02 10:36:17;;;;;;;7.13;4.40;;;;;;;12.05;35.86;102733.22;5052700;28;20045;-68
2021/03/02 10:38:44;;;;;;;7.32;4.45;;;;;;;12.14;36.54;102738.13;5067029;28;20059;-68
2021/03/02 10:41:12;;;;;;;7.82;4.53;;;;;;;12.24;36.11;102730.22;5071923;28;20051;-68
2021/03/02 10:43:40;;;;;;;7.70;4.25;;;;;;;12.32;36.09;102736.97;5072692;28;20036;-68
2021/03/02 10:46:09;;;;;;;7.80;4.38;;;;;;;12.46;35.97;102733.31;5072302;28;20455;-68
2021/03/02 10:48:37;;;;;;;7.43;4.60;;;;;;;12.54;36.04;102736.44;5059316;28;20488;-68
2021/03/02 10:51:06;;;;;;;7.78;4.40;;;;;;;12.66;35.66;102737.53;5051907;28;20045;-68
2021/03/02 10:53:33;;;;;;;8.05;4.30;;;;;;;12.76;35.72;102723.06;5063674;28;20108;-68
2021/03/02 10:56:00;;;;;;;8.50;4.43;;;;;;;12.87;35.30;102727.84;5088087;28;20066;-68
2021/03/02 10:58:28;;;;;;;7.93;4.57;;;;;;;12.98;35.14;102724.44;5062385;28;20041;-68
2021/03/02 11:00:56;;;;;;;6.93;4.47;;;;;;;13.08;34.98;102722.84;5068788;28;20043;-68
2021/03/02 11:03:28;;;;;;;8.07;4.40;;;;;;;13.20;34.31;102726.59;5072063;28;20583;-68
2021/03/02 11:05:56;;;;;;;6.60;3.75;;;;;;;13.28;34.54;102726.97;5072286;28;20052;-68
2021/03/02 11:08:23;;;;;;;7.20;4.18;;;;;;;13.37;34.57;102716.22;5080079;28;20040;-68
2021/03/02 11:10:51;;;;;;;8.32;4.88;;;;;;;13.49;34.47;102726.38;5051481;28;20052;-68
2021/03/02 11:13:19;;;;;;;7.07;4.55;;;;;;;13.60;34.67;102711.00;5058669;28;20040;-68
2021/03/02 11:15:47;;;;;;;8.27;4.60;;;;;;;13.69;34.13;102713.97;5070770;28;20064;-68
2021/03/02 11:18:15;;;;;;;7.20;4.38;;;;;;;13.81;34.17;102710.38;5066353;28;20115;-68
2021/03/02 11:20:44;;;;;;;6.65;4.25;;;;;;;13.93;33.78;102706.78;5051160;28;20117;-68
2021/03/02 11:23:14;;;;;;;7.18;4.57;;;;;;;14.03;33.52;102707.00;5056141;28;20557;-68
2021/03/02 11:25:43;;;;;;;9.07;4.60;;;;;;;14.13;33.21;102702.59;5070622;28;20040;-68
2021/03/02 11:28:12;;;;;;;7.22;4.53;;;;;;;14.23;33.15;102687.19;5068235;28;20063;-68
2021/03/02 11:30:42;;;;;;;8.32;4.35;;;;;;;14.32;32.64;102687.50;5051223;28;20044;-68
2021/03/02 11:33:13;;;;;;;8.35;4.30;;;;;;;14.40;32.96;102685.06;5052853;28;20037;-68
2021/03/02 11:35:44;;;;;;;7.43;4.35;;;;;;;14.50;32.72;102689.75;5051397;28;20548;-68
2021/03/02 11:38:13;;;;;;;7.60;4.47;;;;;;;14.58;32.68;102683.66;5069041;28;20079;-68
2021/03/02 11:40:42;;;;;;;7.57;4.50;;;;;;;14.65;32.16;102677.59;5056311;28;20044;-68
2021/03/02 11:43:10;;;;;;;9.13;5.30;;;;;;;14.74;32.13;102680.66;5052618;28;20090;-68
2021/03/02 11:45:38;;;;;;;6.88;4.22;;;;;;;14.83;31.83;102679.97;5071221;28;20036;-68
2021/03/02 11:48:06;;;;;;;9.60;6.13;;;;;;;14.86;31.57;102674.25;5070655;28;20050;-68
2021/03/02 11:50:37;;;;;;;7.93;4.50;;;;;;;14.96;31.48;102672.56;5049777;28;20041;-66
2021/03/02 11:53:06;;;;;;;7.32;4.32;;;;;;;15.04;31.63;102670.09;5050665;28;20427;-69